CHIUDI BANNER

Seguici su twitter Seguici su facebook
LIVE Streaming HD
Get Adobe Flash player
Dati meteo stazione (refresh automatico ogni minuto)
Latina VENTO: VELOCITÀ   PIOGGIA: QTA GIORNO TEMPERATURA: ATTUALE
SPOT: Latina lido
(Hotel Tirreno) Posizione su Googlemap: Latitudine 41.41 Longitudine 12.84
RAFFICA MASSIMA: QTA MENSILE: MASSIMA:
VELOCITÀ MEDIA: QTA ANNUALE: MINIMA:
DIREZIONE: UMIDITÀ: WIND CHILL:
TIPO: DEW POINT:
BEAUFORT: PRESSIONE:
I nostri partner
Latina nelle ultime ore
Applica filtri in visualizzazione Intervallo delle letture nelle ultime

Ora Direzione Vento Velocita' Vento Media Vento Raffica Max. Temperatura Wind Chill Pioggia Pressione
12:10:37206 °(SSW)3 Kts3 Kts5.6 Kts24.7 °C23.3 °C0 mm1023.6 Hpa
12:05:25191 °(S)3.8 Kts3 Kts5.6 Kts24.6 °C23.2 °C0 mm1023.5 Hpa
12:00:12205 °(SSW)3.8 Kts3 Kts4.7 Kts24.5 °C23.1 °C0 mm1023.5 Hpa
11:54:11204 °(SSW)3 Kts3 Kts4.7 Kts24.7 °C23.3 °C0 mm1023.5 Hpa
11:50:01199 °(SSW)3 Kts3 Kts4.7 Kts24.8 °C23.4 °C0 mm1023.5 Hpa
11:45:51213 °(SSW)3 Kts2.1 Kts4.7 Kts24.6 °C23.5 °C0 mm1023.5 Hpa
11:40:08219 °(SW)2.1 Kts2.1 Kts4.7 Kts24.4 °C23.3 °C0 mm1023.7 Hpa
11:34:54197 °(SSW)3 Kts2.1 Kts4.7 Kts24.2 °C23 °C0 mm1023.7 Hpa
11:30:42205 °(SSW)2.1 Kts2.1 Kts4.7 Kts24 °C22.7 °C0 mm1023.7 Hpa
11:25:31202 °(SSW)3.8 Kts2.1 Kts4.7 Kts23.7 °C22.7 °C0 mm1023.7 Hpa
11:20:17192 °(SSW)1.2 Kts2.1 Kts3.8 Kts23.7 °C22.7 °C0 mm1023.5 Hpa
11:15:06184 °(S)2.1 Kts2.1 Kts3 Kts23.7 °C22.5 °C0 mm1023.5 Hpa
11:09:54180 °(S)2.1 Kts1.2 Kts3 Kts23.4 °C22.6 °C0 mm1023.5 Hpa
11:05:43178 °(S)0.3 Kts1.2 Kts3 Kts23.2 °C22.4 °C0 mm1023.5 Hpa
11:00:31167 °(SSE)2.1 Kts0.3 Kts3 Kts23.5 °C23 °C0 mm1023.5 Hpa
10:55:19163 °(SSE)1.2 Kts0.3 Kts3 Kts23.6 °C23 °C0 mm1023.5 Hpa
10:50:49162 °(SSE)0.3 Kts0 Kts3 Kts23.6 °C23.6 °C0 mm1023.7 Hpa
10:45:39155 °(SSE)0 Kts0 Kts3 Kts23.6 °C23.6 °C0 mm1023.7 Hpa
10:40:04130 °(SE)0 Kts0 Kts3 Kts23.5 °C23.5 °C0 mm1023.7 Hpa
10:35:41121 °(ESE)0 Kts0 Kts3 Kts23.4 °C23.4 °C0 mm1023.9 Hpa
10:30:2883 °(E)0 Kts0 Kts3 Kts23.1 °C23.1 °C0 mm1023.7 Hpa
10:25:1679 °(E)0 Kts0 Kts3 Kts22.8 °C22.8 °C0 mm1023.5 Hpa
10:20:0488 °(E)0 Kts0.3 Kts3 Kts22.5 °C21.9 °C0 mm1023.5 Hpa
10:14:5376 °(ENE)1.2 Kts0.3 Kts3 Kts22.2 °C21.7 °C0 mm1023.2 Hpa